Decoded Metar for KRWI (ROCKY MOUNT in NC, USA) (IATA:RWI) | Meteo·Mobile Aviation Weather
aviador You're here:

KRWI Decoded Metar

ROCKY MOUNT in NC, USA
Report Time2018-10-17 05:53:00
UTC Time2018-10-17 06:22:53
Flight Rules vfr VFR
WindCalm
Visibility9999 m
Phenomena:N/A
Clouds:Overcast 075 Hf
Expected CloudBase > 400 ft AGL from Temp-Dew spread
Ceiling7,500 ft
Temp18°C (ISA +3)
Dew Point17°C (94% RH)
QNH1018 hPa
Density Alt630 ft
Elevation154 ft
Report Wrong Elevation
Raw Report
METAR KRWI 170553Z AUTO 00000KT 10SM OVC075 18/17 A3007 RMK AO2 LTG
DSNT SE AND S SLP180 60000 T01780172 10194 20178 58012=

Extra information for KRWI:More info

Metar Taf Metar & Taf Last 4 Metars F.Rules Stats Wind Profile Meteogram Temp Stats Airport Information Weather charts Add Link Nearby VenuesMetar ALERT Operation Metar Decoded Social comments

AIRNAV info for KRWI